sensor_id;sensor_type;location;lat;lon;timestamp;temperature;humidity
24262;DHT22;12385;51.412;5.540;2023-12-20T00:01:07;7.30;99.90
24262;DHT22;12385;51.412;5.540;2023-12-20T00:03:33;7.30;99.90
24262;DHT22;12385;51.412;5.540;2023-12-20T00:05:59;7.20;99.90
24262;DHT22;12385;51.412;5.540;2023-12-20T00:08:25;7.10;99.90
24262;DHT22;12385;51.412;5.540;2023-12-20T00:10:53;7.10;99.90
24262;DHT22;12385;51.412;5.540;2023-12-20T00:13:18;7.00;99.90
24262;DHT22;12385;51.412;5.540;2023-12-20T00:15:48;7.00;99.90
24262;DHT22;12385;51.412;5.540;2023-12-20T00:18:14;6.90;99.90
24262;DHT22;12385;51.412;5.540;2023-12-20T00:20:39;6.90;99.90
24262;DHT22;12385;51.412;5.540;2023-12-20T00:23:05;6.90;99.90
24262;DHT22;12385;51.412;5.540;2023-12-20T00:25:33;6.90;99.90
24262;DHT22;12385;51.412;5.540;2023-12-20T00:28:00;6.80;99.90
24262;DHT22;12385;51.412;5.540;2023-12-20T00:30:26;6.70;99.90
24262;DHT22;12385;51.412;5.540;2023-12-20T00:32:53;6.70;99.90
24262;DHT22;12385;51.412;5.540;2023-12-20T00:35:18;6.70;99.90
24262;DHT22;12385;51.412;5.540;2023-12-20T00:37:44;6.70;99.90
24262;DHT22;12385;51.412;5.540;2023-12-20T00:40:10;6.70;99.90
24262;DHT22;12385;51.412;5.540;2023-12-20T00:42:36;6.70;99.90
24262;DHT22;12385;51.412;5.540;2023-12-20T00:45:02;6.70;99.90
24262;DHT22;12385;51.412;5.540;2023-12-20T00:47:33;6.70;99.90
24262;DHT22;12385;51.412;5.540;2023-12-20T00:49:58;6.60;99.90
24262;DHT22;12385;51.412;5.540;2023-12-20T00:52:24;6.60;99.90
24262;DHT22;12385;51.412;5.540;2023-12-20T00:54:53;6.50;99.90
24262;DHT22;12385;51.412;5.540;2023-12-20T00:57:18;6.50;99.90
24262;DHT22;12385;51.412;5.540;2023-12-20T00:59:44;6.50;99.90
24262;DHT22;12385;51.412;5.540;2023-12-20T01:02:10;6.40;99.90
24262;DHT22;12385;51.412;5.540;2023-12-20T01:04:35;6.40;99.90
24262;DHT22;12385;51.412;5.540;2023-12-20T01:07:05;6.40;99.90
24262;DHT22;12385;51.412;5.540;2023-12-20T01:09:30;6.30;99.90
24262;DHT22;12385;51.412;5.540;2023-12-20T01:11:57;6.30;99.90
24262;DHT22;12385;51.412;5.540;2023-12-20T01:14:23;6.30;99.90
24262;DHT22;12385;51.412;5.540;2023-12-20T01:16:48;6.30;99.90
24262;DHT22;12385;51.412;5.540;2023-12-20T01:19:14;6.30;99.90
24262;DHT22;12385;51.412;5.540;2023-12-20T01:21:40;6.30;99.90
24262;DHT22;12385;51.412;5.540;2023-12-20T01:24:06;6.30;99.90
24262;DHT22;12385;51.412;5.540;2023-12-20T01:26:34;6.20;99.90
24262;DHT22;12385;51.412;5.540;2023-12-20T01:29:00;6.20;99.90
24262;DHT22;12385;51.412;5.540;2023-12-20T01:31:26;6.20;99.90
24262;DHT22;12385;51.412;5.540;2023-12-20T01:33:56;6.20;99.90
24262;DHT22;12385;51.412;5.540;2023-12-20T01:36:23;6.20;99.90
24262;DHT22;12385;51.412;5.540;2023-12-20T01:38:53;6.20;99.90
24262;DHT22;12385;51.412;5.540;2023-12-20T01:41:18;6.20;99.90
24262;DHT22;12385;51.412;5.540;2023-12-20T01:43:44;6.20;99.90
24262;DHT22;12385;51.412;5.540;2023-12-20T01:46:10;6.20;99.90
24262;DHT22;12385;51.412;5.540;2023-12-20T01:48:37;6.20;99.90
24262;DHT22;12385;51.412;5.540;2023-12-20T01:51:07;6.20;99.90
24262;DHT22;12385;51.412;5.540;2023-12-20T01:53:33;6.20;99.90
24262;DHT22;12385;51.412;5.540;2023-12-20T01:56:00;6.20;99.90
24262;DHT22;12385;51.412;5.540;2023-12-20T01:58:26;6.20;99.90
24262;DHT22;12385;51.412;5.540;2023-12-20T02:00:53;6.20;99.90
24262;DHT22;12385;51.412;5.540;2023-12-20T02:03:22;6.20;99.90
24262;DHT22;12385;51.412;5.540;2023-12-20T02:05:48;6.30;99.90
24262;DHT22;12385;51.412;5.540;2023-12-20T02:08:14;6.30;99.90
24262;DHT22;12385;51.412;5.540;2023-12-20T02:10:40;6.30;99.90
24262;DHT22;12385;51.412;5.540;2023-12-20T02:13:06;6.30;99.90
24262;DHT22;12385;51.412;5.540;2023-12-20T02:15:32;6.30;99.90
24262;DHT22;12385;51.412;5.540;2023-12-20T02:17:58;6.30;99.90
24262;DHT22;12385;51.412;5.540;2023-12-20T02:20:24;6.30;99.90
24262;DHT22;12385;51.412;5.540;2023-12-20T02:22:53;6.20;99.90
24262;DHT22;12385;51.412;5.540;2023-12-20T02:25:19;6.30;99.90
24262;DHT22;12385;51.412;5.540;2023-12-20T02:27:44;6.20;99.90
24262;DHT22;12385;51.412;5.540;2023-12-20T02:30:10;6.20;99.90
24262;DHT22;12385;51.412;5.540;2023-12-20T02:32:36;6.20;99.90
24262;DHT22;12385;51.412;5.540;2023-12-20T02:35:02;6.20;99.90
24262;DHT22;12385;51.412;5.540;2023-12-20T02:37:28;6.30;99.90
24262;DHT22;12385;51.412;5.540;2023-12-20T02:39:54;6.30;99.90
24262;DHT22;12385;51.412;5.540;2023-12-20T02:42:23;6.20;99.90
24262;DHT22;12385;51.412;5.540;2023-12-20T02:44:48;6.30;99.90
24262;DHT22;12385;51.412;5.540;2023-12-20T02:47:14;6.30;99.90
24262;DHT22;12385;51.412;5.540;2023-12-20T02:49:40;6.20;99.90
24262;DHT22;12385;51.412;5.540;2023-12-20T02:52:08;6.20;99.90
24262;DHT22;12385;51.412;5.540;2023-12-20T02:54:34;6.10;99.90
24262;DHT22;12385;51.412;5.540;2023-12-20T02:56:59;6.10;99.90
24262;DHT22;12385;51.412;5.540;2023-12-20T02:59:25;6.10;99.90
24262;DHT22;12385;51.412;5.540;2023-12-20T03:01:53;6.10;99.90
24262;DHT22;12385;51.412;5.540;2023-12-20T03:04:19;6.10;99.90
24262;DHT22;12385;51.412;5.540;2023-12-20T03:06:45;6.10;99.90
24262;DHT22;12385;51.412;5.540;2023-12-20T03:09:10;6.10;99.90
24262;DHT22;12385;51.412;5.540;2023-12-20T03:11:36;6.20;99.90
24262;DHT22;12385;51.412;5.540;2023-12-20T03:14:01;6.20;99.90
24262;DHT22;12385;51.412;5.540;2023-12-20T03:16:27;6.10;99.90
24262;DHT22;12385;51.412;5.540;2023-12-20T03:18:53;6.10;99.90
24262;DHT22;12385;51.412;5.540;2023-12-20T03:21:19;6.10;99.90
24262;DHT22;12385;51.412;5.540;2023-12-20T03:23:45;6.10;99.90
24262;DHT22;12385;51.412;5.540;2023-12-20T03:26:11;6.00;99.90
24262;DHT22;12385;51.412;5.540;2023-12-20T03:28:37;6.00;99.90
24262;DHT22;12385;51.412;5.540;2023-12-20T03:31:03;5.90;99.90
24262;DHT22;12385;51.412;5.540;2023-12-20T03:33:29;5.90;99.90
24262;DHT22;12385;51.412;5.540;2023-12-20T03:35:55;5.90;99.90
24262;DHT22;12385;51.412;5.540;2023-12-20T03:38:24;5.80;99.90
24262;DHT22;12385;51.412;5.540;2023-12-20T03:40:53;5.80;99.90
24262;DHT22;12385;51.412;5.540;2023-12-20T03:43:18;5.80;99.90
24262;DHT22;12385;51.412;5.540;2023-12-20T03:45:44;5.80;99.90
24262;DHT22;12385;51.412;5.540;2023-12-20T03:48:10;5.80;99.90
24262;DHT22;12385;51.412;5.540;2023-12-20T03:50:35;5.80;99.90
24262;DHT22;12385;51.412;5.540;2023-12-20T03:53:01;5.90;99.90
24262;DHT22;12385;51.412;5.540;2023-12-20T03:55:27;5.90;99.90
24262;DHT22;12385;51.412;5.540;2023-12-20T03:57:53;5.90;99.90
24262;DHT22;12385;51.412;5.540;2023-12-20T04:00:19;6.00;99.90
24262;DHT22;12385;51.412;5.540;2023-12-20T04:02:49;6.00;99.90
24262;DHT22;12385;51.412;5.540;2023-12-20T04:05:14;6.00;99.90
24262;DHT22;12385;51.412;5.540;2023-12-20T04:07:40;6.00;99.90
24262;DHT22;12385;51.412;5.540;2023-12-20T04:10:06;6.10;99.90
24262;DHT22;12385;51.412;5.540;2023-12-20T04:12:33;6.10;99.90
24262;DHT22;12385;51.412;5.540;2023-12-20T04:14:59;6.10;99.90
24262;DHT22;12385;51.412;5.540;2023-12-20T04:17:24;6.20;99.90
24262;DHT22;12385;51.412;5.540;2023-12-20T04:19:53;6.20;99.90
24262;DHT22;12385;51.412;5.540;2023-12-20T04:22:19;6.20;99.90
24262;DHT22;12385;51.412;5.540;2023-12-20T04:24:46;6.20;99.90
24262;DHT22;12385;51.412;5.540;2023-12-20T04:27:11;6.20;99.90
24262;DHT22;12385;51.412;5.540;2023-12-20T04:29:37;6.30;99.90
24262;DHT22;12385;51.412;5.540;2023-12-20T04:32:04;6.30;99.90
24262;DHT22;12385;51.412;5.540;2023-12-20T04:34:29;6.30;99.90
24262;DHT22;12385;51.412;5.540;2023-12-20T04:36:55;6.30;99.90
24262;DHT22;12385;51.412;5.540;2023-12-20T04:39:23;6.30;99.90
24262;DHT22;12385;51.412;5.540;2023-12-20T04:41:53;6.40;99.90
24262;DHT22;12385;51.412;5.540;2023-12-20T04:44:18;6.40;99.90
24262;DHT22;12385;51.412;5.540;2023-12-20T04:46:44;6.40;99.90
24262;DHT22;12385;51.412;5.540;2023-12-20T04:49:10;6.40;99.90
24262;DHT22;12385;51.412;5.540;2023-12-20T04:51:35;6.50;99.90
24262;DHT22;12385;51.412;5.540;2023-12-20T04:54:02;6.40;99.90
24262;DHT22;12385;51.412;5.540;2023-12-20T04:56:28;6.50;99.90
24262;DHT22;12385;51.412;5.540;2023-12-20T04:58:53;6.50;99.90
24262;DHT22;12385;51.412;5.540;2023-12-20T05:01:22;6.50;99.90
24262;DHT22;12385;51.412;5.540;2023-12-20T05:03:48;6.50;99.90
24262;DHT22;12385;51.412;5.540;2023-12-20T05:06:14;6.60;99.90
24262;DHT22;12385;51.412;5.540;2023-12-20T05:08:40;6.60;99.90
24262;DHT22;12385;51.412;5.540;2023-12-20T05:11:06;6.60;99.90
24262;DHT22;12385;51.412;5.540;2023-12-20T05:13:32;6.60;99.90
24262;DHT22;12385;51.412;5.540;2023-12-20T05:15:58;6.60;99.90
24262;DHT22;12385;51.412;5.540;2023-12-20T05:18:24;6.60;99.90
24262;DHT22;12385;51.412;5.540;2023-12-20T05:20:53;6.70;99.90
24262;DHT22;12385;51.412;5.540;2023-12-20T05:23:19;6.70;99.90
24262;DHT22;12385;51.412;5.540;2023-12-20T05:25:48;6.70;99.90
24262;DHT22;12385;51.412;5.540;2023-12-20T05:28:14;6.70;99.90
24262;DHT22;12385;51.412;5.540;2023-12-20T05:30:40;6.70;99.90
24262;DHT22;12385;51.412;5.540;2023-12-20T05:33:06;6.80;99.90
24262;DHT22;12385;51.412;5.540;2023-12-20T05:35:31;6.80;99.90
24262;DHT22;12385;51.412;5.540;2023-12-20T05:37:57;6.80;99.90
24262;DHT22;12385;51.412;5.540;2023-12-20T05:40:23;6.80;99.90
24262;DHT22;12385;51.412;5.540;2023-12-20T05:42:49;6.80;99.90
24262;DHT22;12385;51.412;5.540;2023-12-20T05:45:14;6.80;99.90
24262;DHT22;12385;51.412;5.540;2023-12-20T05:47:40;6.80;99.90
24262;DHT22;12385;51.412;5.540;2023-12-20T05:50:06;6.90;99.90
24262;DHT22;12385;51.412;5.540;2023-12-20T05:52:32;6.90;99.90
24262;DHT22;12385;51.412;5.540;2023-12-20T05:54:58;6.90;99.90
24262;DHT22;12385;51.412;5.540;2023-12-20T05:57:26;6.90;99.90
24262;DHT22;12385;51.412;5.540;2023-12-20T05:59:53;6.90;99.90
24262;DHT22;12385;51.412;5.540;2023-12-20T06:02:19;6.90;99.90
24262;DHT22;12385;51.412;5.540;2023-12-20T06:04:45;6.90;99.90
24262;DHT22;12385;51.412;5.540;2023-12-20T06:07:15;6.90;99.90
24262;DHT22;12385;51.412;5.540;2023-12-20T06:09:40;6.90;99.90
24262;DHT22;12385;51.412;5.540;2023-12-20T06:12:07;6.90;99.90
24262;DHT22;12385;51.412;5.540;2023-12-20T06:14:36;6.90;99.90
24262;DHT22;12385;51.412;5.540;2023-12-20T06:17:02;6.90;99.90
24262;DHT22;12385;51.412;5.540;2023-12-20T06:19:28;6.80;99.90
24262;DHT22;12385;51.412;5.540;2023-12-20T06:21:54;6.80;99.90
24262;DHT22;12385;51.412;5.540;2023-12-20T06:24:23;6.80;99.90
24262;DHT22;12385;51.412;5.540;2023-12-20T06:26:53;6.80;99.90
24262;DHT22;12385;51.412;5.540;2023-12-20T06:29:18;6.70;99.90
24262;DHT22;12385;51.412;5.540;2023-12-20T06:31:44;6.60;99.90
24262;DHT22;12385;51.412;5.540;2023-12-20T06:34:10;6.60;99.90
24262;DHT22;12385;51.412;5.540;2023-12-20T06:36:36;6.50;99.90
24262;DHT22;12385;51.412;5.540;2023-12-20T06:39:01;6.50;99.90
24262;DHT22;12385;51.412;5.540;2023-12-20T06:41:28;6.40;99.90
24262;DHT22;12385;51.412;5.540;2023-12-20T06:43:53;6.30;99.90
24262;DHT22;12385;51.412;5.540;2023-12-20T06:46:19;6.30;99.90
24262;DHT22;12385;51.412;5.540;2023-12-20T06:48:45;6.20;99.90
24262;DHT22;12385;51.412;5.540;2023-12-20T06:51:15;6.20;99.90
24262;DHT22;12385;51.412;5.540;2023-12-20T06:53:41;6.20;99.90
24262;DHT22;12385;51.412;5.540;2023-12-20T06:56:07;6.10;99.90
24262;DHT22;12385;51.412;5.540;2023-12-20T06:58:34;6.10;99.90
24262;DHT22;12385;51.412;5.540;2023-12-20T07:00:59;6.10;99.90
24262;DHT22;12385;51.412;5.540;2023-12-20T07:03:25;6.00;99.90
24262;DHT22;12385;51.412;5.540;2023-12-20T07:05:53;6.00;99.90
24262;DHT22;12385;51.412;5.540;2023-12-20T07:08:22;6.10;99.90
24262;DHT22;12385;51.412;5.540;2023-12-20T07:10:48;6.10;99.90
24262;DHT22;12385;51.412;5.540;2023-12-20T07:13:13;6.20;99.90
24262;DHT22;12385;51.412;5.540;2023-12-20T07:15:39;6.20;99.90
24262;DHT22;12385;51.412;5.540;2023-12-20T07:18:05;6.20;99.90
24262;DHT22;12385;51.412;5.540;2023-12-20T07:20:32;6.20;99.90
24262;DHT22;12385;51.412;5.540;2023-12-20T07:23:00;6.20;99.90
24262;DHT22;12385;51.412;5.540;2023-12-20T07:25:26;6.20;99.90
24262;DHT22;12385;51.412;5.540;2023-12-20T07:27:53;6.10;99.90
24262;DHT22;12385;51.412;5.540;2023-12-20T07:30:19;6.10;99.90
24262;DHT22;12385;51.412;5.540;2023-12-20T07:32:52;6.10;99.90
24262;DHT22;12385;51.412;5.540;2023-12-20T07:35:18;6.10;99.90
24262;DHT22;12385;51.412;5.540;2023-12-20T07:37:46;6.10;99.90
24262;DHT22;12385;51.412;5.540;2023-12-20T07:40:11;6.10;99.90
24262;DHT22;12385;51.412;5.540;2023-12-20T07:42:37;6.20;99.90
24262;DHT22;12385;51.412;5.540;2023-12-20T07:45:03;6.20;99.90
24262;DHT22;12385;51.412;5.540;2023-12-20T07:47:30;6.20;99.90
24262;DHT22;12385;51.412;5.540;2023-12-20T07:49:55;6.30;99.90
24262;DHT22;12385;51.412;5.540;2023-12-20T07:52:23;6.40;99.90
24262;DHT22;12385;51.412;5.540;2023-12-20T07:54:48;6.40;99.90
24262;DHT22;12385;51.412;5.540;2023-12-20T07:57:14;6.40;99.90
24262;DHT22;12385;51.412;5.540;2023-12-20T07:59:40;6.40;99.90
24262;DHT22;12385;51.412;5.540;2023-12-20T08:02:06;6.40;99.90
24262;DHT22;12385;51.412;5.540;2023-12-20T08:04:32;6.50;99.90
24262;DHT22;12385;51.412;5.540;2023-12-20T08:06:58;6.50;99.90
24262;DHT22;12385;51.412;5.540;2023-12-20T08:09:24;6.50;99.90
24262;DHT22;12385;51.412;5.540;2023-12-20T08:11:53;6.50;99.90
24262;DHT22;12385;51.412;5.540;2023-12-20T08:14:22;6.60;99.90
24262;DHT22;12385;51.412;5.540;2023-12-20T08:16:48;6.50;99.90
24262;DHT22;12385;51.412;5.540;2023-12-20T08:19:13;6.50;99.90
24262;DHT22;12385;51.412;5.540;2023-12-20T08:21:39;6.60;99.90
24262;DHT22;12385;51.412;5.540;2023-12-20T08:24:05;6.60;99.90
24262;DHT22;12385;51.412;5.540;2023-12-20T08:26:34;6.60;99.90
24262;DHT22;12385;51.412;5.540;2023-12-20T08:29:00;6.60;99.90
24262;DHT22;12385;51.412;5.540;2023-12-20T08:31:25;6.60;99.90
24262;DHT22;12385;51.412;5.540;2023-12-20T08:33:53;6.60;99.90
24262;DHT22;12385;51.412;5.540;2023-12-20T08:36:23;6.60;99.90
24262;DHT22;12385;51.412;5.540;2023-12-20T08:38:49;6.60;99.90
24262;DHT22;12385;51.412;5.540;2023-12-20T08:41:18;6.60;99.90
24262;DHT22;12385;51.412;5.540;2023-12-20T08:43:48;6.50;99.90
24262;DHT22;12385;51.412;5.540;2023-12-20T08:46:14;6.50;99.90
24262;DHT22;12385;51.412;5.540;2023-12-20T08:48:40;6.50;99.90
24262;DHT22;12385;51.412;5.540;2023-12-20T08:51:12;6.50;99.90
24262;DHT22;12385;51.412;5.540;2023-12-20T08:53:38;6.50;99.90
24262;DHT22;12385;51.412;5.540;2023-12-20T08:56:07;6.50;99.90
24262;DHT22;12385;51.412;5.540;2023-12-20T08:58:32;6.50;99.90
24262;DHT22;12385;51.412;5.540;2023-12-20T09:00:59;6.50;99.90
24262;DHT22;12385;51.412;5.540;2023-12-20T09:03:24;6.50;99.90
24262;DHT22;12385;51.412;5.540;2023-12-20T09:05:53;6.50;99.90
24262;DHT22;12385;51.412;5.540;2023-12-20T09:08:18;6.60;99.90
24262;DHT22;12385;51.412;5.540;2023-12-20T09:10:44;6.60;99.90
24262;DHT22;12385;51.412;5.540;2023-12-20T09:13:10;6.60;99.90
24262;DHT22;12385;51.412;5.540;2023-12-20T09:15:35;6.60;99.90
24262;DHT22;12385;51.412;5.540;2023-12-20T09:18:02;6.60;99.90
24262;DHT22;12385;51.412;5.540;2023-12-20T09:20:27;6.70;99.90
24262;DHT22;12385;51.412;5.540;2023-12-20T09:22:53;6.70;99.90
24262;DHT22;12385;51.412;5.540;2023-12-20T09:25:19;6.70;99.90
24262;DHT22;12385;51.412;5.540;2023-12-20T09:27:44;6.70;99.90
24262;DHT22;12385;51.412;5.540;2023-12-20T09:30:10;6.80;99.90
24262;DHT22;12385;51.412;5.540;2023-12-20T09:32:36;6.90;99.90
24262;DHT22;12385;51.412;5.540;2023-12-20T09:35:02;6.90;99.90
24262;DHT22;12385;51.412;5.540;2023-12-20T09:37:30;6.90;99.90
24262;DHT22;12385;51.412;5.540;2023-12-20T09:43:15;7.10;99.90
24262;DHT22;12385;51.412;5.540;2023-12-20T09:45:42;7.10;99.90
24262;DHT22;12385;51.412;5.540;2023-12-20T09:48:11;7.10;99.90
24262;DHT22;12385;51.412;5.540;2023-12-20T09:50:37;7.10;99.90
24262;DHT22;12385;51.412;5.540;2023-12-20T09:53:05;7.10;99.90
24262;DHT22;12385;51.412;5.540;2023-12-20T09:55:36;7.20;99.90
24262;DHT22;12385;51.412;5.540;2023-12-20T09:58:02;7.10;99.90
24262;DHT22;12385;51.412;5.540;2023-12-20T10:00:28;7.20;99.90
24262;DHT22;12385;51.412;5.540;2023-12-20T10:02:58;7.20;99.90
24262;DHT22;12385;51.412;5.540;2023-12-20T10:05:32;7.20;99.90
24262;DHT22;12385;51.412;5.540;2023-12-20T10:07:58;7.20;99.90
24262;DHT22;12385;51.412;5.540;2023-12-20T10:10:24;7.30;99.90
24262;DHT22;12385;51.412;5.540;2023-12-20T10:13:03;7.30;99.90
24262;DHT22;12385;51.412;5.540;2023-12-20T10:15:29;7.30;99.90
24262;DHT22;12385;51.412;5.540;2023-12-20T10:17:55;7.30;99.90
24262;DHT22;12385;51.412;5.540;2023-12-20T10:20:21;7.30;99.90
24262;DHT22;12385;51.412;5.540;2023-12-20T10:22:46;7.40;99.90
24262;DHT22;12385;51.412;5.540;2023-12-20T10:25:13;7.40;99.90
24262;DHT22;12385;51.412;5.540;2023-12-20T10:27:38;7.40;99.90
24262;DHT22;12385;51.412;5.540;2023-12-20T10:30:04;7.40;99.90
24262;DHT22;12385;51.412;5.540;2023-12-20T10:32:31;7.50;99.90
24262;DHT22;12385;51.412;5.540;2023-12-20T10:34:57;7.50;99.90
24262;DHT22;12385;51.412;5.540;2023-12-20T10:37:23;7.50;99.90
24262;DHT22;12385;51.412;5.540;2023-12-20T10:39:54;7.50;99.90
24262;DHT22;12385;51.412;5.540;2023-12-20T10:42:28;7.50;99.90
24262;DHT22;12385;51.412;5.540;2023-12-20T10:44:55;7.50;99.90
24262;DHT22;12385;51.412;5.540;2023-12-20T10:47:22;7.60;99.90
24262;DHT22;12385;51.412;5.540;2023-12-20T10:49:48;7.60;99.90
24262;DHT22;12385;51.412;5.540;2023-12-20T10:52:17;7.50;99.90
24262;DHT22;12385;51.412;5.540;2023-12-20T10:54:43;7.50;99.90
24262;DHT22;12385;51.412;5.540;2023-12-20T10:57:10;7.50;99.90
24262;DHT22;12385;51.412;5.540;2023-12-20T10:59:37;7.50;99.90
24262;DHT22;12385;51.412;5.540;2023-12-20T11:02:04;7.50;99.90
24262;DHT22;12385;51.412;5.540;2023-12-20T11:04:55;7.50;99.90
24262;DHT22;12385;51.412;5.540;2023-12-20T11:07:43;7.50;99.90
24262;DHT22;12385;51.412;5.540;2023-12-20T11:10:29;7.50;99.90
24262;DHT22;12385;51.412;5.540;2023-12-20T11:13:17;7.50;99.90
24262;DHT22;12385;51.412;5.540;2023-12-20T11:15:48;7.60;99.90
24262;DHT22;12385;51.412;5.540;2023-12-20T11:18:15;7.50;99.90
24262;DHT22;12385;51.412;5.540;2023-12-20T11:20:41;7.50;99.90
24262;DHT22;12385;51.412;5.540;2023-12-20T11:23:08;7.50;99.90
24262;DHT22;12385;51.412;5.540;2023-12-20T11:25:54;7.60;99.90
24262;DHT22;12385;51.412;5.540;2023-12-20T11:28:24;7.60;99.90
24262;DHT22;12385;51.412;5.540;2023-12-20T11:30:55;7.60;99.90
24262;DHT22;12385;51.412;5.540;2023-12-20T11:33:40;7.60;99.90
24262;DHT22;12385;51.412;5.540;2023-12-20T11:36:18;7.60;99.90
24262;DHT22;12385;51.412;5.540;2023-12-20T11:38:57;7.60;99.90
24262;DHT22;12385;51.412;5.540;2023-12-20T11:41:26;7.60;99.90
24262;DHT22;12385;51.412;5.540;2023-12-20T11:43:55;7.60;99.90
24262;DHT22;12385;51.412;5.540;2023-12-20T11:46:25;7.60;99.90
24262;DHT22;12385;51.412;5.540;2023-12-20T11:48:52;7.50;99.90
24262;DHT22;12385;51.412;5.540;2023-12-20T11:51:18;7.50;99.90
24262;DHT22;12385;51.412;5.540;2023-12-20T11:53:44;7.50;99.90
24262;DHT22;12385;51.412;5.540;2023-12-20T11:56:10;7.50;99.90
24262;DHT22;12385;51.412;5.540;2023-12-20T11:58:36;7.50;99.90
24262;DHT22;12385;51.412;5.540;2023-12-20T12:01:01;7.50;99.90
24262;DHT22;12385;51.412;5.540;2023-12-20T12:03:28;7.50;99.90
24262;DHT22;12385;51.412;5.540;2023-12-20T12:05:53;7.50;99.90
24262;DHT22;12385;51.412;5.540;2023-12-20T12:08:20;7.50;99.90
24262;DHT22;12385;51.412;5.540;2023-12-20T12:10:47;7.50;99.90
24262;DHT22;12385;51.412;5.540;2023-12-20T12:13:13;7.50;99.90
24262;DHT22;12385;51.412;5.540;2023-12-20T12:15:42;7.50;99.90
24262;DHT22;12385;51.412;5.540;2023-12-20T12:18:08;7.50;99.90
24262;DHT22;12385;51.412;5.540;2023-12-20T12:20:34;7.50;99.90
24262;DHT22;12385;51.412;5.540;2023-12-20T12:23:00;7.50;99.90
24262;DHT22;12385;51.412;5.540;2023-12-20T12:25:28;7.50;99.90
24262;DHT22;12385;51.412;5.540;2023-12-20T12:27:54;7.50;99.90
24262;DHT22;12385;51.412;5.540;2023-12-20T12:30:23;7.50;99.90
24262;DHT22;12385;51.412;5.540;2023-12-20T12:32:53;7.50;99.90
24262;DHT22;12385;51.412;5.540;2023-12-20T12:35:19;7.50;99.90
24262;DHT22;12385;51.412;5.540;2023-12-20T12:37:47;7.50;99.90
24262;DHT22;12385;51.412;5.540;2023-12-20T12:40:17;7.50;99.90
24262;DHT22;12385;51.412;5.540;2023-12-20T12:42:44;7.60;99.90
24262;DHT22;12385;51.412;5.540;2023-12-20T12:45:11;7.60;99.90
24262;DHT22;12385;51.412;5.540;2023-12-20T12:47:37;7.60;99.90
24262;DHT22;12385;51.412;5.540;2023-12-20T12:50:03;7.60;99.90
24262;DHT22;12385;51.412;5.540;2023-12-20T12:52:30;7.70;99.90
24262;DHT22;12385;51.412;5.540;2023-12-20T12:54:56;7.70;99.90
24262;DHT22;12385;51.412;5.540;2023-12-20T12:57:22;7.70;99.90
24262;DHT22;12385;51.412;5.540;2023-12-20T12:59:52;7.80;99.90
24262;DHT22;12385;51.412;5.540;2023-12-20T13:02:21;7.80;99.90
24262;DHT22;12385;51.412;5.540;2023-12-20T13:04:48;7.90;99.90
24262;DHT22;12385;51.412;5.540;2023-12-20T13:07:13;7.90;99.90
24262;DHT22;12385;51.412;5.540;2023-12-20T13:09:39;7.90;99.90
24262;DHT22;12385;51.412;5.540;2023-12-20T13:12:06;7.90;99.90
24262;DHT22;12385;51.412;5.540;2023-12-20T13:14:34;8.00;99.90
24262;DHT22;12385;51.412;5.540;2023-12-20T13:17:00;8.00;99.90
24262;DHT22;12385;51.412;5.540;2023-12-20T13:19:26;8.00;99.90
24262;DHT22;12385;51.412;5.540;2023-12-20T13:21:53;8.10;99.90
24262;DHT22;12385;51.412;5.540;2023-12-20T13:24:19;8.10;99.90
24262;DHT22;12385;51.412;5.540;2023-12-20T13:26:46;8.10;99.90
24262;DHT22;12385;51.412;5.540;2023-12-20T13:29:12;8.10;99.90
24262;DHT22;12385;51.412;5.540;2023-12-20T13:31:38;8.10;99.90
24262;DHT22;12385;51.412;5.540;2023-12-20T13:34:05;8.10;99.90
24262;DHT22;12385;51.412;5.540;2023-12-20T13:36:31;8.10;99.90
24262;DHT22;12385;51.412;5.540;2023-12-20T13:38:57;8.10;99.90
24262;DHT22;12385;51.412;5.540;2023-12-20T13:41:29;8.20;99.90
24262;DHT22;12385;51.412;5.540;2023-12-20T13:44:02;8.10;99.90
24262;DHT22;12385;51.412;5.540;2023-12-20T13:46:29;8.20;99.90
24262;DHT22;12385;51.412;5.540;2023-12-20T13:48:54;8.10;99.90
24262;DHT22;12385;51.412;5.540;2023-12-20T13:51:22;8.10;99.90
24262;DHT22;12385;51.412;5.540;2023-12-20T13:53:48;8.10;99.90
24262;DHT22;12385;51.412;5.540;2023-12-20T13:56:17;8.10;99.90
24262;DHT22;12385;51.412;5.540;2023-12-20T13:58:46;8.20;99.90
24262;DHT22;12385;51.412;5.540;2023-12-20T14:01:12;8.20;99.90
24262;DHT22;12385;51.412;5.540;2023-12-20T14:03:38;8.20;99.90
24262;DHT22;12385;51.412;5.540;2023-12-20T14:06:03;8.20;99.90
24262;DHT22;12385;51.412;5.540;2023-12-20T14:08:29;8.20;99.90
24262;DHT22;12385;51.412;5.540;2023-12-20T14:10:55;8.20;99.90
24262;DHT22;12385;51.412;5.540;2023-12-20T14:13:22;8.20;99.90
24262;DHT22;12385;51.412;5.540;2023-12-20T14:15:48;8.20;99.90
24262;DHT22;12385;51.412;5.540;2023-12-20T14:18:14;8.20;99.90
24262;DHT22;12385;51.412;5.540;2023-12-20T14:20:41;8.20;99.90
24262;DHT22;12385;51.412;5.540;2023-12-20T14:23:08;8.20;99.90
24262;DHT22;12385;51.412;5.540;2023-12-20T14:25:35;8.20;99.90
24262;DHT22;12385;51.412;5.540;2023-12-20T14:28:03;8.20;99.90
24262;DHT22;12385;51.412;5.540;2023-12-20T14:30:29;8.20;99.90
24262;DHT22;12385;51.412;5.540;2023-12-20T14:32:54;8.20;99.90
24262;DHT22;12385;51.412;5.540;2023-12-20T14:35:22;8.20;99.90
24262;DHT22;12385;51.412;5.540;2023-12-20T14:37:48;8.20;99.90
24262;DHT22;12385;51.412;5.540;2023-12-20T14:40:16;8.20;99.90
24262;DHT22;12385;51.412;5.540;2023-12-20T14:42:46;8.20;99.90
24262;DHT22;12385;51.412;5.540;2023-12-20T14:45:12;8.20;99.90
24262;DHT22;12385;51.412;5.540;2023-12-20T14:47:39;8.20;99.90
24262;DHT22;12385;51.412;5.540;2023-12-20T14:50:06;8.20;99.90
24262;DHT22;12385;51.412;5.540;2023-12-20T14:52:33;8.20;99.90
24262;DHT22;12385;51.412;5.540;2023-12-20T14:55:02;8.20;99.90
24262;DHT22;12385;51.412;5.540;2023-12-20T14:57:29;8.20;99.90
24262;DHT22;12385;51.412;5.540;2023-12-20T14:59:57;8.20;99.90
24262;DHT22;12385;51.412;5.540;2023-12-20T15:02:24;8.20;99.90
24262;DHT22;12385;51.412;5.540;2023-12-20T15:04:52;8.30;99.90
24262;DHT22;12385;51.412;5.540;2023-12-20T15:07:19;8.20;99.90
24262;DHT22;12385;51.412;5.540;2023-12-20T15:09:46;8.30;99.90
24262;DHT22;12385;51.412;5.540;2023-12-20T15:12:13;8.30;99.90
24262;DHT22;12385;51.412;5.540;2023-12-20T15:14:39;8.30;99.90
24262;DHT22;12385;51.412;5.540;2023-12-20T15:17:04;8.30;99.90
24262;DHT22;12385;51.412;5.540;2023-12-20T15:19:31;8.30;99.90
24262;DHT22;12385;51.412;5.540;2023-12-20T15:21:57;8.30;99.90
24262;DHT22;12385;51.412;5.540;2023-12-20T15:24:24;8.30;99.90
24262;DHT22;12385;51.412;5.540;2023-12-20T15:27:02;8.40;99.90
24262;DHT22;12385;51.412;5.540;2023-12-20T15:29:28;8.40;99.90
24262;DHT22;12385;51.412;5.540;2023-12-20T15:31:54;8.40;99.90
24262;DHT22;12385;51.412;5.540;2023-12-20T15:34:23;8.40;99.90
24262;DHT22;12385;51.412;5.540;2023-12-20T15:36:48;8.40;99.90
24262;DHT22;12385;51.412;5.540;2023-12-20T15:39:14;8.40;99.90
24262;DHT22;12385;51.412;5.540;2023-12-20T15:41:40;8.40;99.90
24262;DHT22;12385;51.412;5.540;2023-12-20T15:44:05;8.30;99.90
24262;DHT22;12385;51.412;5.540;2023-12-20T15:46:32;8.40;99.90